createdAt,value
2023-02-04T00:00:13.271Z,1.17
2023-02-04T00:02:41.122Z,1.17
2023-02-04T00:05:10.722Z,1.15
2023-02-04T00:07:40.429Z,1.08
2023-02-04T00:10:09.242Z,1.17
2023-02-04T00:12:36.858Z,1.40
2023-02-04T00:15:04.831Z,1.23
2023-02-04T00:17:32.418Z,1.35
2023-02-04T00:19:59.974Z,1.00
2023-02-04T00:22:29.292Z,1.20
2023-02-04T00:24:57.168Z,1.00
2023-02-04T00:27:24.712Z,1.30
2023-02-04T00:29:52.262Z,1.38
2023-02-04T00:32:19.889Z,1.45
2023-02-04T00:34:47.451Z,1.55
2023-02-04T00:37:15.023Z,1.20
2023-02-04T00:39:43.974Z,1.30
2023-02-04T00:42:11.496Z,1.38
2023-02-04T00:44:39.031Z,1.35
2023-02-04T00:47:06.982Z,1.40
2023-02-04T00:49:34.967Z,1.30
2023-02-04T00:52:02.631Z,1.40
2023-02-04T00:54:30.209Z,1.30
2023-02-04T00:56:59.244Z,1.40
2023-02-04T00:59:26.858Z,1.30
2023-02-04T01:01:54.439Z,1.30
2023-02-04T01:04:22.337Z,1.43
2023-02-04T01:06:49.877Z,1.35
2023-02-04T01:09:17.459Z,1.23
2023-02-04T01:11:45.033Z,1.63
2023-02-04T01:14:13.958Z,1.45
2023-02-04T01:16:41.555Z,1.33
2023-02-04T01:19:09.148Z,1.30
2023-02-04T01:21:36.709Z,1.25
2023-02-04T01:24:04.533Z,1.30
2023-02-04T01:26:32.117Z,1.00
2023-02-04T01:28:59.647Z,1.30
2023-02-04T01:31:31.397Z,1.52
2023-02-04T01:33:59.003Z,0.93
2023-02-04T01:36:26.553Z,1.52
2023-02-04T01:38:54.295Z,1.20
2023-02-04T01:41:21.878Z,1.13
2023-02-04T01:43:49.649Z,1.20
2023-02-04T01:46:17.713Z,1.40
2023-02-04T01:48:46.813Z,1.50
2023-02-04T01:51:16.048Z,1.40
2023-02-04T01:53:43.865Z,1.40
2023-02-04T01:56:17.365Z,1.33
2023-02-04T01:58:45.026Z,1.33
2023-02-04T02:01:13.681Z,1.50
2023-02-04T02:03:41.279Z,1.67
2023-02-04T02:06:11.601Z,1.13
2023-02-04T02:08:39.238Z,1.38
2023-02-04T02:11:07.066Z,1.83
2023-02-04T02:13:34.607Z,1.42
2023-02-04T02:16:02.156Z,1.42
2023-02-04T02:18:29.874Z,1.30
2023-02-04T02:20:58.732Z,1.60
2023-02-04T02:23:30.623Z,1.60
2023-02-04T02:25:59.626Z,1.50
2023-02-04T02:28:27.209Z,1.55
2023-02-04T02:30:54.852Z,1.20
2023-02-04T02:33:22.540Z,1.52
2023-02-04T02:35:50.534Z,1.13
2023-02-04T02:38:19.085Z,1.77
2023-02-04T02:40:46.921Z,1.48
2023-02-04T02:43:16.838Z,1.50
2023-02-04T02:45:44.661Z,1.83
2023-02-04T02:48:12.626Z,1.23
2023-02-04T02:50:40.937Z,1.27
2023-02-04T02:53:12.057Z,1.50
2023-02-04T02:55:39.702Z,1.20
2023-02-04T02:58:11.463Z,1.30
2023-02-04T03:00:40.494Z,1.90
2023-02-04T03:03:09.815Z,1.52
2023-02-04T03:05:38.939Z,1.48
2023-02-04T03:08:06.811Z,1.47
2023-02-04T03:10:34.603Z,1.38
2023-02-04T03:13:02.130Z,1.52
2023-02-04T03:15:29.892Z,1.55
2023-02-04T03:17:59.025Z,1.70
2023-02-04T03:20:28.096Z,1.30
2023-02-04T03:22:56.133Z,1.92
2023-02-04T03:25:26.430Z,1.52
2023-02-04T03:27:55.059Z,1.52
2023-02-04T03:30:22.865Z,1.33
2023-02-04T03:32:50.485Z,1.20
2023-02-04T03:35:19.499Z,1.20
2023-02-04T03:37:47.241Z,1.50
2023-02-04T03:40:14.811Z,1.90
2023-02-04T03:42:42.398Z,1.63
2023-02-04T03:45:10.176Z,2.03
2023-02-04T03:47:37.869Z,1.50
2023-02-04T03:50:06.112Z,1.42
2023-02-04T03:52:35.028Z,1.50
2023-02-04T03:55:02.562Z,1.70
2023-02-04T03:57:31.389Z,1.73
2023-02-04T03:59:58.914Z,2.08
2023-02-04T04:02:26.498Z,1.75
2023-02-04T04:04:54.182Z,1.45
2023-02-04T04:07:21.727Z,1.35
2023-02-04T04:09:50.624Z,1.80
2023-02-04T04:12:18.197Z,1.92
2023-02-04T04:14:45.730Z,1.42
2023-02-04T04:17:13.258Z,1.30
2023-02-04T04:19:40.818Z,1.77
2023-02-04T04:22:08.379Z,2.10
2023-02-04T04:24:35.936Z,1.52
2023-02-04T04:27:04.834Z,1.50
2023-02-04T04:29:32.395Z,1.92
2023-02-04T04:32:00.003Z,1.77
2023-02-04T04:34:27.561Z,1.73
2023-02-04T04:36:55.101Z,1.70
2023-02-04T04:39:23.032Z,1.63
2023-02-04T04:41:50.610Z,2.03
2023-02-04T04:44:19.518Z,1.92
2023-02-04T04:46:47.061Z,2.10
2023-02-04T04:49:14.685Z,1.73
2023-02-04T04:51:42.233Z,2.17
2023-02-04T04:54:09.776Z,1.60
2023-02-04T04:56:37.386Z,1.90
2023-02-04T04:59:05.071Z,1.60
2023-02-04T05:01:34.014Z,2.17
2023-02-04T05:04:01.573Z,2.00
2023-02-04T05:06:29.135Z,1.98
2023-02-04T05:08:56.671Z,2.33
2023-02-04T05:11:24.201Z,2.00
2023-02-04T05:13:51.802Z,1.65
2023-02-04T05:16:19.354Z,1.60
2023-02-04T05:18:48.332Z,2.28
2023-02-04T05:21:15.870Z,2.00
2023-02-04T05:23:43.426Z,1.67
2023-02-04T05:26:13.649Z,1.80
2023-02-04T05:28:42.829Z,1.85
2023-02-04T05:31:10.479Z,1.70
2023-02-04T05:33:38.098Z,1.70
2023-02-04T05:36:07.310Z,2.00
2023-02-04T05:38:34.866Z,2.00
2023-02-04T05:41:02.424Z,2.63
2023-02-04T05:43:29.975Z,2.08
2023-02-04T05:45:57.823Z,2.42
2023-02-04T05:48:25.434Z,2.20
2023-02-04T05:50:52.956Z,1.75
2023-02-04T05:53:21.876Z,1.38
2023-02-04T05:55:49.439Z,2.92
2023-02-04T05:58:17.010Z,2.65
2023-02-04T06:00:44.544Z,3.07
2023-02-04T06:03:13.284Z,2.08
2023-02-04T06:05:40.999Z,2.30
2023-02-04T06:08:08.528Z,2.17
2023-02-04T06:10:37.531Z,2.40
2023-02-04T06:13:05.070Z,2.47
2023-02-04T06:15:32.626Z,1.75
2023-02-04T06:18:00.165Z,1.83
2023-02-04T06:20:27.742Z,2.25
2023-02-04T06:22:55.368Z,2.65
2023-02-04T06:25:22.951Z,1.67
2023-02-04T06:27:51.948Z,1.48
2023-02-04T06:30:19.564Z,1.67
2023-02-04T06:32:47.109Z,1.70
2023-02-04T06:35:16.542Z,1.33
2023-02-04T06:37:44.439Z,1.17
2023-02-04T06:40:12.749Z,1.20
2023-02-04T06:42:40.305Z,1.70
2023-02-04T06:45:09.702Z,1.00
2023-02-04T06:47:37.248Z,1.40
2023-02-04T06:50:04.988Z,0.97
2023-02-04T06:52:32.580Z,0.98
2023-02-04T06:55:00.143Z,1.33
2023-02-04T06:57:27.718Z,1.20
2023-02-04T06:59:55.287Z,1.20
2023-02-04T07:02:24.242Z,0.93
2023-02-04T07:04:51.823Z,0.98
2023-02-04T07:07:19.403Z,0.88
2023-02-04T07:09:46.957Z,1.10
2023-02-04T07:12:16.260Z,1.00
2023-02-04T07:14:44.058Z,1.30
2023-02-04T07:17:11.738Z,0.93
2023-02-04T07:19:40.640Z,1.50
2023-02-04T07:22:08.214Z,1.10
2023-02-04T07:24:35.765Z,1.00
2023-02-04T07:27:03.347Z,1.10
2023-02-04T07:29:30.887Z,1.10
2023-02-04T07:31:58.616Z,1.13
2023-02-04T07:34:26.259Z,0.75
2023-02-04T07:36:55.256Z,1.35
2023-02-04T07:39:22.864Z,0.80
2023-02-04T07:41:50.448Z,1.17
2023-02-04T07:44:17.963Z,0.88
2023-02-04T07:46:45.512Z,1.20
2023-02-04T07:49:13.133Z,1.13
2023-02-04T07:51:40.703Z,1.00
2023-02-04T07:54:09.676Z,1.10
2023-02-04T07:56:37.242Z,1.00
2023-02-04T07:59:04.890Z,1.10
2023-02-04T08:01:32.938Z,1.30
2023-02-04T08:04:00.575Z,1.40
2023-02-04T08:06:28.114Z,1.10
2023-02-04T08:08:55.663Z,1.27
2023-02-04T08:11:24.613Z,1.50
2023-02-04T08:13:52.142Z,1.90
2023-02-04T08:16:19.792Z,1.40
2023-02-04T08:18:47.390Z,1.55
2023-02-04T08:21:14.937Z,1.60
2023-02-04T08:23:42.465Z,1.67
2023-02-04T08:26:10.392Z,1.70
2023-02-04T08:28:39.550Z,1.20
2023-02-04T08:31:11.682Z,1.38
2023-02-04T08:33:39.820Z,1.80
2023-02-04T08:36:07.956Z,1.42
2023-02-04T08:38:35.782Z,1.83
2023-02-04T08:41:03.615Z,1.63
2023-02-04T08:43:31.160Z,1.20
2023-02-04T08:46:00.127Z,1.35
2023-02-04T08:48:27.685Z,1.60
2023-02-04T08:50:55.263Z,2.50
2023-02-04T08:53:22.816Z,2.83
2023-02-04T08:55:50.389Z,2.53
2023-02-04T08:58:17.964Z,2.42
2023-02-04T09:00:45.603Z,2.42
2023-02-04T09:03:14.600Z,2.30
2023-02-04T09:05:42.196Z,2.10
2023-02-04T09:08:09.753Z,2.10
2023-02-04T09:10:37.324Z,2.20
2023-02-04T09:13:04.899Z,1.95
2023-02-04T09:15:32.482Z,1.90
2023-02-04T09:18:04.963Z,2.10
2023-02-04T09:20:36.105Z,1.85
2023-02-04T09:23:03.687Z,1.92
2023-02-04T09:25:31.266Z,2.03
2023-02-04T09:27:58.885Z,2.17
2023-02-04T09:30:26.475Z,1.90
2023-02-04T09:32:54.041Z,2.30
2023-02-04T09:35:21.582Z,1.90
2023-02-04T09:37:50.498Z,2.30
2023-02-04T09:40:20.638Z,2.40
2023-02-04T09:42:49.963Z,1.40
2023-02-04T09:45:18.649Z,1.90
2023-02-04T09:47:46.331Z,2.13
2023-02-04T09:50:15.871Z,1.73
2023-02-04T09:52:43.427Z,1.50
2023-02-04T09:55:15.251Z,1.30
2023-02-04T09:57:43.074Z,1.30
2023-02-04T10:00:16.123Z,1.90
2023-02-04T10:02:44.027Z,1.13
2023-02-04T10:05:14.465Z,1.17
2023-02-04T10:07:42.080Z,1.20
2023-02-04T10:10:15.781Z,0.80
2023-02-04T10:12:43.343Z,0.93
2023-02-04T10:15:13.781Z,0.95
2023-02-04T10:17:41.494Z,0.90
2023-02-04T10:20:13.456Z,0.80
2023-02-04T10:22:41.089Z,0.70
2023-02-04T10:25:13.086Z,0.98
2023-02-04T10:27:50.379Z,0.73
2023-02-04T10:30:22.132Z,0.90
2023-02-04T10:32:50.159Z,0.63
2023-02-04T10:35:18.810Z,0.80
2023-02-04T10:37:46.906Z,0.90
2023-02-04T10:40:28.088Z,0.90
2023-02-04T10:42:57.010Z,1.13
2023-02-04T10:45:25.246Z,1.40
2023-02-04T10:47:53.271Z,2.03
2023-02-04T10:50:21.891Z,1.35
2023-02-04T10:52:50.725Z,0.80
2023-02-04T10:55:18.178Z,0.82
2023-02-04T10:57:47.721Z,0.83
2023-02-04T11:00:21.585Z,1.05
2023-02-04T11:02:56.534Z,0.80
2023-02-04T11:05:26.163Z,0.85
2023-02-04T11:07:53.699Z,1.00
2023-02-04T11:10:22.153Z,0.83
2023-02-04T11:13:00.809Z,0.80
2023-02-04T11:15:44.544Z,0.75
2023-02-04T11:18:13.379Z,0.80
2023-02-04T11:20:41.212Z,0.75
2023-02-04T11:23:16.592Z,0.80
2023-02-04T11:25:44.200Z,0.80
2023-02-04T11:28:15.283Z,0.98
2023-02-04T11:30:44.457Z,0.70
2023-02-04T11:33:23.230Z,0.70
2023-02-04T11:36:04.563Z,0.87
2023-02-04T11:38:32.762Z,0.80
2023-02-04T11:41:00.873Z,0.80
2023-02-04T11:43:30.382Z,0.90
2023-02-04T11:46:11.452Z,0.82
2023-02-04T11:48:39.109Z,0.60
2023-02-04T11:51:12.497Z,0.80
2023-02-04T11:53:40.029Z,0.95
2023-02-04T11:56:07.611Z,0.98
2023-02-04T11:58:35.156Z,0.90
2023-02-04T12:01:02.683Z,0.80
2023-02-04T12:03:34.234Z,0.90
2023-02-04T12:06:01.942Z,0.80
2023-02-04T12:08:34.115Z,0.80
2023-02-04T12:11:07.469Z,1.00
2023-02-04T12:13:35.910Z,1.50
2023-02-04T12:16:04.356Z,0.75
2023-02-04T12:18:33.862Z,0.80
2023-02-04T12:21:01.744Z,0.88
2023-02-04T12:23:30.094Z,0.90
2023-02-04T12:25:57.955Z,1.50
2023-02-04T12:28:25.705Z,1.20
2023-02-04T12:30:53.369Z,0.90
2023-02-04T12:33:22.634Z,1.27
2023-02-04T12:35:51.550Z,1.20
2023-02-04T12:38:20.584Z,1.00
2023-02-04T12:40:48.340Z,0.95
2023-02-04T12:43:15.917Z,1.10
2023-02-04T12:45:46.381Z,1.35
2023-02-04T12:48:15.052Z,1.15
2023-02-04T12:50:42.810Z,0.97
2023-02-04T12:53:11.812Z,1.05
2023-02-04T12:55:39.457Z,1.50
2023-02-04T12:58:07.013Z,1.45
2023-02-04T13:00:34.645Z,0.98
2023-02-04T13:03:02.470Z,0.90
2023-02-04T13:05:30.187Z,0.90
2023-02-04T13:07:58.029Z,1.00
2023-02-04T13:10:26.938Z,1.23
2023-02-04T13:12:54.565Z,1.40
2023-02-04T13:15:22.159Z,1.20
2023-02-04T13:17:49.790Z,1.10
2023-02-04T13:20:17.457Z,1.00
2023-02-04T13:22:45.036Z,0.95
2023-02-04T13:25:12.674Z,1.00
2023-02-04T13:27:41.705Z,1.10
2023-02-04T13:30:09.891Z,1.42
2023-02-04T13:32:37.586Z,1.48
2023-02-04T13:35:05.314Z,1.08
2023-02-04T13:37:32.908Z,1.48
2023-02-04T13:40:00.501Z,1.07
2023-02-04T13:42:28.075Z,1.33
2023-02-04T13:44:56.986Z,1.15
2023-02-04T13:47:24.609Z,0.90
2023-02-04T13:49:52.273Z,0.80
2023-02-04T13:52:20.099Z,0.77
2023-02-04T13:54:47.643Z,0.75
2023-02-04T13:57:16.729Z,0.85
2023-02-04T13:59:44.337Z,1.10
2023-02-04T14:02:13.368Z,1.00
2023-02-04T14:04:43.878Z,0.77
2023-02-04T14:07:11.554Z,0.80
2023-02-04T14:09:39.088Z,1.00
2023-02-04T14:12:06.826Z,0.93
2023-02-04T14:14:34.422Z,1.05
2023-02-04T14:17:01.996Z,0.70
2023-02-04T14:19:30.992Z,0.60
2023-02-04T14:21:58.624Z,0.70
2023-02-04T14:24:26.340Z,0.75
2023-02-04T14:26:53.952Z,1.10
2023-02-04T14:29:21.512Z,0.80
2023-02-04T14:31:49.164Z,1.05
2023-02-04T14:34:16.781Z,0.90
2023-02-04T14:36:45.754Z,1.00
2023-02-04T14:39:13.353Z,0.80
2023-02-04T14:41:40.949Z,1.10
2023-02-04T14:44:08.473Z,0.80
2023-02-04T14:46:36.254Z,1.00
2023-02-04T14:49:03.965Z,1.45
2023-02-04T14:51:31.536Z,1.15
2023-02-04T14:54:02.490Z,0.83
2023-02-04T14:56:30.056Z,0.80
2023-02-04T14:58:57.675Z,1.20
2023-02-04T15:01:25.590Z,1.00
2023-02-04T15:03:53.187Z,1.00
2023-02-04T15:06:20.764Z,1.20
2023-02-04T15:08:48.354Z,0.77
2023-02-04T15:11:17.279Z,0.90
2023-02-04T15:13:44.861Z,1.17
2023-02-04T15:16:14.397Z,0.98
2023-02-04T15:18:42.349Z,1.20
2023-02-04T15:21:10.172Z,1.52
2023-02-04T15:23:37.801Z,1.30
2023-02-04T15:26:05.487Z,1.55
2023-02-04T15:28:34.457Z,1.60
2023-02-04T15:31:02.099Z,1.40
2023-02-04T15:33:29.694Z,1.52
2023-02-04T15:35:57.274Z,0.98
2023-02-04T15:38:25.038Z,0.80
2023-02-04T15:40:52.622Z,1.20
2023-02-04T15:43:20.197Z,0.93
2023-02-04T15:45:49.190Z,0.80
2023-02-04T15:48:17.517Z,0.80
2023-02-04T15:50:45.136Z,0.80
2023-02-04T15:53:12.834Z,0.70
2023-02-04T15:55:40.405Z,1.17
2023-02-04T15:58:07.980Z,1.02
2023-02-04T16:00:35.630Z,1.60
2023-02-04T16:03:04.758Z,1.10
2023-02-04T16:05:32.371Z,1.10
2023-02-04T16:07:59.945Z,1.77
2023-02-04T16:10:28.192Z,2.08
2023-02-04T16:12:57.742Z,2.03
2023-02-04T16:15:25.897Z,1.50
2023-02-04T16:17:55.528Z,1.88
2023-02-04T16:20:24.911Z,2.00
2023-02-04T16:22:52.563Z,2.33
2023-02-04T16:25:20.152Z,1.80
2023-02-04T16:27:47.746Z,1.70
2023-02-04T16:30:15.467Z,1.50
2023-02-04T16:32:43.063Z,1.10
2023-02-04T16:35:10.845Z,1.13
2023-02-04T16:37:39.797Z,1.05
2023-02-04T16:40:08.008Z,1.98
2023-02-04T16:42:35.564Z,1.75
2023-02-04T16:45:03.138Z,1.57
2023-02-04T16:47:30.790Z,1.50
2023-02-04T16:50:00.893Z,1.33
2023-02-04T16:52:28.520Z,1.60
2023-02-04T16:54:57.470Z,1.77
2023-02-04T16:57:25.310Z,1.60
2023-02-04T16:59:52.868Z,2.10
2023-02-04T17:02:20.422Z,2.30
2023-02-04T17:04:47.978Z,1.60
2023-02-04T17:07:15.536Z,1.45
2023-02-04T17:09:43.815Z,1.80
2023-02-04T17:12:12.749Z,1.52
2023-02-04T17:14:41.109Z,2.05
2023-02-04T17:17:09.208Z,2.13
2023-02-04T17:19:36.738Z,1.73
2023-02-04T17:22:04.520Z,1.40
2023-02-04T17:24:32.110Z,1.90
2023-02-04T17:27:00.607Z,1.90
2023-02-04T17:29:29.602Z,2.13
2023-02-04T17:31:57.240Z,2.70
2023-02-04T17:34:24.847Z,2.37
2023-02-04T17:36:52.399Z,2.05
2023-02-04T17:39:19.938Z,2.45
2023-02-04T17:41:47.586Z,2.90
2023-02-04T17:44:19.064Z,2.35
2023-02-04T17:46:48.098Z,2.87
2023-02-04T17:49:16.125Z,2.47
2023-02-04T17:51:43.772Z,2.42
2023-02-04T17:54:12.601Z,2.90
2023-02-04T17:56:40.208Z,2.72
2023-02-04T17:59:10.113Z,2.57
2023-02-04T18:01:38.535Z,1.80
2023-02-04T18:04:10.357Z,2.38
2023-02-04T18:06:38.309Z,1.90
2023-02-04T18:09:13.016Z,2.17
2023-02-04T18:11:41.122Z,2.67
2023-02-04T18:14:13.239Z,3.42
2023-02-04T18:16:41.627Z,3.58
2023-02-04T18:19:16.863Z,2.38
2023-02-04T18:21:44.556Z,4.05
2023-02-04T18:24:17.424Z,2.77
2023-02-04T18:26:47.539Z,2.58
2023-02-04T18:29:21.873Z,2.80
2023-02-04T18:31:51.596Z,3.58
2023-02-04T18:34:24.334Z,4.30
2023-02-04T18:36:52.215Z,5.60
2023-02-04T18:39:20.934Z,3.30
2023-02-04T18:41:49.439Z,2.63
2023-02-04T18:44:22.464Z,2.42
2023-02-04T18:46:50.015Z,3.13
2023-02-04T18:49:25.550Z,3.40
2023-02-04T18:51:53.262Z,3.50
2023-02-04T18:54:34.034Z,3.58
2023-02-04T18:57:04.855Z,3.85
2023-02-04T18:59:32.575Z,3.25
2023-02-04T19:02:00.629Z,3.67
2023-02-04T19:04:34.152Z,2.90
2023-02-04T19:07:02.362Z,4.03
2023-02-04T19:09:32.195Z,2.60
2023-02-04T19:12:01.470Z,3.05
2023-02-04T19:14:34.775Z,3.17
2023-02-04T19:17:16.837Z,2.60
2023-02-04T19:19:48.061Z,2.10
2023-02-04T19:22:18.749Z,2.75
2023-02-04T19:24:46.681Z,2.47
2023-02-04T19:27:26.304Z,2.00
2023-02-04T19:29:54.529Z,2.10
2023-02-04T19:32:27.429Z,2.30
2023-02-04T19:34:58.555Z,2.80
2023-02-04T19:37:27.568Z,2.78
2023-02-04T19:39:55.733Z,1.97
2023-02-04T19:42:33.976Z,1.63
2023-02-04T19:45:02.175Z,1.83
2023-02-04T19:47:30.444Z,2.03
2023-02-04T19:50:02.793Z,1.48
2023-02-04T19:52:36.847Z,2.00
2023-02-04T19:55:28.237Z,1.55
2023-02-04T19:57:58.072Z,1.10
2023-02-04T20:00:30.838Z,1.92
2023-02-04T20:02:58.839Z,1.48
2023-02-04T20:05:31.320Z,1.30
2023-02-04T20:08:00.781Z,1.17
2023-02-04T20:10:29.361Z,1.33
2023-02-04T20:12:57.349Z,1.85
2023-02-04T20:15:24.918Z,1.30
2023-02-04T20:17:52.932Z,1.40
2023-02-04T20:20:22.601Z,1.73
2023-02-04T20:22:53.147Z,1.48
2023-02-04T20:25:41.474Z,1.63
2023-02-04T20:28:17.304Z,1.80
2023-02-04T20:30:45.214Z,1.60
2023-02-04T20:33:19.885Z,1.60
2023-02-04T20:36:02.302Z,1.45
2023-02-04T20:38:31.752Z,1.73
2023-02-04T20:40:59.310Z,1.17
2023-02-04T20:43:26.828Z,1.60
2023-02-04T20:45:55.974Z,1.02
2023-02-04T20:48:29.721Z,1.63
2023-02-04T20:50:58.543Z,1.60
2023-02-04T20:53:26.847Z,2.20
2023-02-04T20:56:03.480Z,1.37
2023-02-04T20:58:35.160Z,1.85
2023-02-04T21:01:02.968Z,1.60
2023-02-04T21:03:31.173Z,1.42
2023-02-04T21:05:59.925Z,1.45
2023-02-04T21:08:35.449Z,1.47
2023-02-04T21:11:04.489Z,0.98
2023-02-04T21:13:32.101Z,1.55
2023-02-04T21:15:59.768Z,1.45
2023-02-04T21:18:27.787Z,1.30
2023-02-04T21:20:55.356Z,1.23
2023-02-04T21:23:22.915Z,1.55
2023-02-04T21:25:50.515Z,1.55
2023-02-04T21:28:19.477Z,1.42
2023-02-04T21:30:47.129Z,1.48
2023-02-04T21:33:16.938Z,1.40
2023-02-04T21:35:44.904Z,1.60
2023-02-04T21:38:12.475Z,1.50
2023-02-04T21:40:40.155Z,1.92
2023-02-04T21:43:08.369Z,1.65
2023-02-04T21:45:39.516Z,1.80
2023-02-04T21:48:07.941Z,1.52
2023-02-04T21:50:36.285Z,1.65
2023-02-04T21:53:04.046Z,1.20
2023-02-04T21:55:32.213Z,1.98
2023-02-04T21:57:59.992Z,1.80
2023-02-04T22:00:27.615Z,1.77
2023-02-04T22:02:56.796Z,1.88
2023-02-04T22:05:24.676Z,2.45
2023-02-04T22:07:52.589Z,1.95
2023-02-04T22:10:21.449Z,2.00
2023-02-04T22:12:49.360Z,1.80
2023-02-04T22:15:16.965Z,1.85
2023-02-04T22:17:44.584Z,2.33
2023-02-04T22:20:15.709Z,1.80
2023-02-04T22:22:43.436Z,1.83
2023-02-04T22:25:11.198Z,1.55
2023-02-04T22:27:38.772Z,2.13
2023-02-04T22:30:07.079Z,1.98
2023-02-04T22:32:34.681Z,2.25
2023-02-04T22:35:02.228Z,2.00
2023-02-04T22:37:31.194Z,1.83
2023-02-04T22:39:58.758Z,2.15
2023-02-04T22:42:26.436Z,2.35
2023-02-04T22:44:54.105Z,1.67
2023-02-04T22:47:21.687Z,2.13
2023-02-04T22:49:49.234Z,2.03
2023-02-04T22:52:16.842Z,1.90
2023-02-04T22:54:45.800Z,2.00
2023-02-04T22:57:13.523Z,1.52
2023-02-04T22:59:41.104Z,2.00
2023-02-04T23:02:08.689Z,2.40
2023-02-04T23:04:36.264Z,2.00
2023-02-04T23:07:04.726Z,2.15
2023-02-04T23:09:32.887Z,1.75
2023-02-04T23:12:12.571Z,1.80
2023-02-04T23:14:41.312Z,2.15
2023-02-04T23:17:08.914Z,2.95
2023-02-04T23:19:36.492Z,2.42
2023-02-04T23:22:04.169Z,2.13
2023-02-04T23:24:31.795Z,2.03
2023-02-04T23:27:00.222Z,1.35
2023-02-04T23:29:29.446Z,1.55
2023-02-04T23:31:57.275Z,1.70
2023-02-04T23:34:25.192Z,2.03
2023-02-04T23:36:52.795Z,2.33
2023-02-04T23:39:20.593Z,1.77
2023-02-04T23:41:48.183Z,1.98
2023-02-04T23:44:15.810Z,2.15
2023-02-04T23:46:44.880Z,2.00
2023-02-04T23:49:12.564Z,1.80
2023-02-04T23:51:40.209Z,1.52
2023-02-04T23:54:08.152Z,1.80
2023-02-04T23:56:35.750Z,1.67
2023-02-04T23:59:03.331Z,2.20
